SBPB/PHB METAR and TAF weather

Enter ICAO airport designator
Station Type Date Time Source
SBPB METAR 2018/12/11 21:45 UTC NOAA

SBPB 112145Z 00000KT 9999 SCT020 26/20 Q1012


Station Type Date Time Source
SBPB Decoded METAR 2018/12/11 21:45 UTC NOAA

Parnaiba Aeroporto , Brazil (SBPB) 02-55S 041-45W
Dec 11, 2018 - 04:45 PM EST / 2018.12.11 2145 UTC
Wind: Calm:0
Visibility: greater than 7 mile(s):0
Sky conditions: partly cloudy
Temperature: 78 F (26 C)
Dew Point: 68 F (20 C)
Relative Humidity: 69%
Pressure (altimeter): 29.88 in. Hg (1012 hPa)
ob: SBPB 112145Z 00000KT 9999 SCT020 26/20 Q1012
cycle: 22

Station Type Date Time Source
SBPB TAF 2018/12/12 06:27 UTC NOAA

TAF SBPB 120100Z 1206/1306 07008KT 8000 SCT017 TN26/1208Z TX33/1216Z PROB40 1218/1221 TS SCT015 SCT020 FEW030CB
RMK PEU


Example: see airport list